Crumpton, MD (21628)

6:19 PM EST on December 25, 2014 (GMT -0500)
PUCK'S GLEN FARM | Change Station
CLOSE
Current Station
Personal Weather Station
Location: Millington, MD
Elevation: 50 ft
Nearby Weather Stations

Elev 50 ft 39.25 °N, 75.91 °W | Updated 4 minutes ago

Clear
Clear
44.9 °F
Feels Like 45 °F
N
0.0
Wind Variable Wind from NW

Today
High -- | Low -- °F
--% Chance of Precip.
Yesterday
High -- | Low -- °F
Precip. -- in
7:21 AM 4:46 PM
Waxing Crescent, 20% visible
Pressure 30.08 in
Visibility 10.0 miles
Clouds Clear
Windchill 45 °F
Dew Point 30 °F
Humidity 56%
Rainfall 0.12 in
Snow Depth Not available.
UV 0 out of 12
Pollen .10 out of 12
Air Quality Not available.
Flu Activity Not available.
METAR KDOV 252258Z AUTO 23005KT 10SM CLR 08/M01 A3007 RMK AO2 SLP186 T00821011

More Conditions Fewer Conditions

Pressure 30.08 in
Visibility 10.0 miles
Clouds Clear
Windchill 45 °F
Dew Point 30 °F
Humidity 56%
Rainfall 0.12 in
Snow Depth Not available.
UV 0 out of 12
Pollen .10 out of 12
Air Quality Not available.
Flu Activity Not available.
METAR KDOV 252258Z AUTO 23005KT 10SM CLR 08/M01 A3007 RMK AO2 SLP186 T00821011

More Conditions Fewer Conditions

10-Day Weather Forecast

Almanac

Astronomy

Dec. 25, 2014 Rise Set
Actual Time
Civil Twilight
Nautical Twilight
Astronomical Twilight
Moon
Length of Visible Light
Length of Day
Tomorrow will be .
, % of the Moon is Illuminated

Today's Extremes

State Highs State Lows

Community

WunderPhotos

Upload Photos

1,780,440 photos uploaded!

WunderBlogs® & News

Nearby

Air Quality

  Air Quality AQ Index Pollutant
Not available.

Snow Depth

Station Depth Elevation

Earthquake Activity

City Distance Mag. Time & Date
Minimum magnitude displayed is 2.5.

Coastal Water Temperatures

Place Temperature

Nearby Weather Stations